Strona główna
METAR-TAF:

METAR-TAF

Lotnisko :

Port lotniczy Rovaniemi

Rovaniemi, Finlandia

Szerokość geograficzna: 66-34N, Długość geograficzna: 025-50E, wysokość: 197 m

Aktualna obserwacja pogody

Raport powstał 34 minut temu, godzina 22:20 UTC
Wiatr 7 kt od północno-północny wschód
Temperatura 9°C
Wilgotność 61%
Ciśnienie 1033 hPa
Widzialność 10 km lub więcej
Brak chmur poniżej 1500 m i brak chmur cumulonimbus

METAR: EFRO 302220Z AUTO 03007KT CAVOK 09/02 Q1033

czas: 01:54 (22:54 UTC)

Prognoza

Raport powstał 2 godziny i 30 minut temu, godzina 20:24 UTC
Prognoza ważna od 30 godzina 21 UTC do 31 godzina 21 UTC
Wiatr 6 kt od wschodnio-północny wschód
Widzialność 10 km lub więcej
Brak chmur poniżej 1500 m i brak chmur cumulonimbus

TAF: EFRO 302024Z 3021/3121 06006KT CAVOK

Obserwacja i prognoza pogody dla ponad 4000 lotnisk (raport METAR i TAF).

Dostępne stacje oznaczono żółtymi i czerwonymi punktami na mapie.

Najedź kursorem aby zobaczyć nazwę stacji.

Kliknij aby zobaczyć obserwacje i prognozy pogody.

Aby zmienić mapę: kliknij na zielony przycisk z czarnym krzyżykiem, aby powiększyć; na zielony przycisk z myślnikiem, aby pomniejszyć; na zielone strzałki, aby przejść do map sąsiednich.


METAR-TAF: